createdAt,value
2019-01-11T00:01:56.612Z,19.63
2019-01-11T00:04:26.734Z,17.40
2019-01-11T00:06:57.790Z,19.10
2019-01-11T00:09:27.502Z,17.77
2019-01-11T00:11:57.305Z,19.47
2019-01-11T00:14:27.160Z,20.10
2019-01-11T00:16:56.832Z,20.50
2019-01-11T00:19:26.671Z,20.50
2019-01-11T00:21:56.384Z,19.50
2019-01-11T00:24:26.386Z,20.43
2019-01-11T00:26:56.183Z,19.73
2019-01-11T00:29:25.942Z,22.13
2019-01-11T00:31:55.706Z,21.23
2019-01-11T00:34:25.421Z,21.77
2019-01-11T00:36:55.281Z,21.90
2019-01-11T00:39:25.039Z,24.17
2019-01-11T00:41:54.878Z,24.17
2019-01-11T00:44:24.836Z,26.00
2019-01-11T00:46:54.702Z,34.10
2019-01-11T00:49:24.718Z,31.27
2019-01-11T00:51:54.579Z,35.63
2019-01-11T00:54:24.561Z,32.33
2019-01-11T00:56:54.468Z,30.83
2019-01-11T00:59:24.327Z,29.87
2019-01-11T01:01:54.321Z,27.30
2019-01-11T01:04:24.138Z,23.60
2019-01-11T01:06:55.409Z,24.90
2019-01-11T01:09:25.435Z,25.70
2019-01-11T01:11:55.323Z,26.50
2019-01-11T01:14:25.215Z,27.13
2019-01-11T01:16:55.308Z,26.93
2019-01-11T01:19:25.378Z,31.00
2019-01-11T01:21:55.290Z,42.03
2019-01-11T01:24:25.178Z,37.97
2019-01-11T01:26:55.152Z,31.20
2019-01-11T01:29:25.004Z,44.40
2019-01-11T01:31:55.022Z,48.33
2019-01-11T01:34:24.725Z,47.20
2019-01-11T01:36:54.426Z,53.40
2019-01-11T01:39:24.388Z,41.30
2019-01-11T01:41:54.250Z,48.70
2019-01-11T01:44:24.121Z,47.10
2019-01-11T01:46:53.878Z,51.83
2019-01-11T01:49:26.692Z,47.20
2019-01-11T01:51:55.309Z,52.47
2019-01-11T01:54:25.158Z,51.33
2019-01-11T01:56:55.027Z,60.33
2019-01-11T01:59:25.126Z,50.70
2019-01-11T02:01:55.844Z,45.40
2019-01-11T02:04:25.649Z,46.40
2019-01-11T02:06:55.599Z,35.97
2019-01-11T02:09:25.471Z,36.20
2019-01-11T02:11:55.395Z,33.87
2019-01-11T02:14:25.367Z,30.17
2019-01-11T02:16:55.238Z,28.80
2019-01-11T02:19:25.139Z,32.50
2019-01-11T02:21:54.858Z,29.43
2019-01-11T02:24:24.684Z,33.53
2019-01-11T02:26:54.401Z,29.77
2019-01-11T02:29:24.276Z,28.10
2019-01-11T02:31:54.284Z,27.33
2019-01-11T02:34:24.031Z,30.87
2019-01-11T02:36:54.008Z,31.23
2019-01-11T02:39:23.920Z,36.27
2019-01-11T02:41:55.196Z,35.80
2019-01-11T02:44:25.058Z,38.50
2019-01-11T02:46:54.814Z,33.10
2019-01-11T02:49:24.766Z,32.40
2019-01-11T02:51:54.436Z,32.07
2019-01-11T02:54:24.349Z,31.43
2019-01-11T02:56:54.319Z,30.87
2019-01-11T02:59:24.128Z,29.37
2019-01-11T03:01:53.785Z,28.33
2019-01-11T03:04:23.939Z,29.93
2019-01-11T03:06:53.660Z,33.87
2019-01-11T03:09:23.860Z,37.10
2019-01-11T03:11:53.829Z,33.47
2019-01-11T03:14:23.607Z,36.90
2019-01-11T03:16:53.511Z,33.83
2019-01-11T03:19:23.448Z,36.83
2019-01-11T03:21:53.220Z,38.20
2019-01-11T03:24:22.956Z,38.60
2019-01-11T03:26:53.198Z,36.90
2019-01-11T03:29:22.884Z,38.40
2019-01-11T03:31:52.691Z,33.70
2019-01-11T03:34:22.624Z,35.57
2019-01-11T03:36:52.410Z,34.10
2019-01-11T03:39:22.348Z,37.87
2019-01-11T03:42:19.887Z,35.53
2019-01-11T03:44:49.636Z,49.47
2019-01-11T03:47:19.498Z,47.07
2019-01-11T03:49:54.823Z,49.97
2019-01-11T03:52:21.177Z,46.47
2019-01-11T03:54:51.011Z,35.73
2019-01-11T03:57:20.863Z,33.27
2019-01-11T03:59:50.676Z,30.47
2019-01-11T04:02:20.846Z,34.33
2019-01-11T04:04:50.710Z,32.10
2019-01-11T04:07:20.542Z,30.40
2019-01-11T04:09:50.305Z,29.50
2019-01-11T04:12:19.956Z,31.13
2019-01-11T04:14:49.833Z,31.90
2019-01-11T04:17:19.595Z,30.63
2019-01-11T04:19:49.451Z,21.70
2019-01-11T04:22:26.949Z,20.47
2019-01-11T04:25:16.050Z,19.17
2019-01-11T04:27:45.997Z,19.03
2019-01-11T04:30:18.807Z,19.80
2019-01-11T04:32:48.575Z,18.00
2019-01-11T04:35:20.235Z,16.43
2019-01-11T04:37:50.383Z,19.20
2019-01-11T04:40:20.677Z,16.60
2019-01-11T04:42:50.618Z,17.90
2019-01-11T04:45:20.475Z,18.03
2019-01-11T04:47:50.259Z,16.83
2019-01-11T04:50:20.479Z,15.33
2019-01-11T04:52:50.560Z,16.30
2019-01-11T04:55:20.696Z,15.80
2019-01-11T04:57:50.411Z,16.07
2019-01-11T05:00:22.265Z,13.63
2019-01-11T05:02:52.428Z,13.73
2019-01-11T05:05:22.377Z,13.50
2019-01-11T05:07:52.205Z,14.40
2019-01-11T05:10:22.090Z,14.20
2019-01-11T05:12:52.089Z,12.73
2019-01-11T05:15:21.944Z,11.40
2019-01-11T05:17:51.892Z,13.90
2019-01-11T05:20:21.697Z,11.63
2019-01-11T05:22:51.708Z,12.10
2019-01-11T05:25:21.611Z,12.80
2019-01-11T05:27:51.580Z,12.23
2019-01-11T05:30:21.768Z,11.17
2019-01-11T05:32:53.782Z,10.90
2019-01-11T05:35:23.969Z,11.90
2019-01-11T05:37:53.771Z,11.13
2019-01-11T05:40:23.695Z,11.03
2019-01-11T05:42:53.606Z,11.53
2019-01-11T05:45:24.005Z,13.00
2019-01-11T05:47:54.139Z,11.87
2019-01-11T05:50:24.554Z,13.80
2019-01-11T05:52:54.392Z,13.87
2019-01-11T05:55:52.296Z,13.10
2019-01-11T05:58:38.808Z,17.43
2019-01-11T06:01:08.780Z,22.10
2019-01-11T06:03:38.748Z,25.53
2019-01-11T06:06:09.770Z,23.20
2019-01-11T06:08:39.993Z,23.47
2019-01-11T06:11:10.207Z,21.47
2019-01-11T06:13:40.012Z,16.93
2019-01-11T06:16:11.476Z,16.67
2019-01-11T06:18:41.403Z,19.97
2019-01-11T06:21:11.179Z,18.90
2019-01-11T06:23:41.237Z,18.07
2019-01-11T06:26:11.066Z,16.63
2019-01-11T06:28:40.933Z,16.40
2019-01-11T06:31:10.871Z,17.63
2019-01-11T06:33:41.640Z,17.80
2019-01-11T06:36:11.403Z,18.23
2019-01-11T06:38:41.199Z,18.37
2019-01-11T06:41:11.134Z,18.70
2019-01-11T06:43:41.136Z,20.00
2019-01-11T06:46:11.042Z,19.50
2019-01-11T06:48:44.099Z,23.17
2019-01-11T06:51:14.100Z,20.97
2019-01-11T06:53:44.063Z,21.40
2019-01-11T06:56:14.045Z,24.97
2019-01-11T06:58:43.819Z,27.17
2019-01-11T07:01:13.637Z,22.87
2019-01-11T07:03:43.696Z,22.93
2019-01-11T07:06:13.686Z,25.03
2019-01-11T07:08:43.788Z,26.10
2019-01-11T07:11:14.874Z,25.97
2019-01-11T07:13:44.645Z,26.23
2019-01-11T07:16:14.314Z,26.07
2019-01-11T07:18:44.309Z,24.47
2019-01-11T07:21:14.093Z,24.23
2019-01-11T07:23:43.948Z,23.83
2019-01-11T07:26:13.845Z,22.77
2019-01-11T07:28:43.742Z,20.50
2019-01-11T07:31:20.880Z,18.87
2019-01-11T07:33:50.552Z,19.27
2019-01-11T07:36:35.252Z,18.00
2019-01-11T07:39:20.659Z,17.43
2019-01-11T07:41:50.486Z,17.83
2019-01-11T07:44:20.226Z,18.57
2019-01-11T07:46:50.028Z,15.90
2019-01-11T07:49:23.293Z,17.80
2019-01-11T07:51:51.597Z,18.80
2019-01-11T07:54:22.069Z,17.03
2019-01-11T07:56:53.052Z,14.80
2019-01-11T07:59:23.604Z,11.57
2019-01-11T08:01:53.656Z,12.90
2019-01-11T08:04:23.447Z,11.87
2019-01-11T08:06:53.252Z,11.77
2019-01-11T08:09:23.115Z,12.37
2019-01-11T08:11:53.131Z,11.67
2019-01-11T08:14:23.002Z,12.00
2019-01-11T08:16:52.930Z,11.47
2019-01-11T08:19:22.789Z,11.93
2019-01-11T08:21:52.655Z,10.50
2019-01-11T08:24:22.458Z,10.67
2019-01-11T08:26:54.566Z,11.27
2019-01-11T08:29:24.438Z,11.10
2019-01-11T08:31:54.150Z,10.93
2019-01-11T08:34:24.188Z,10.47
2019-01-11T08:36:53.975Z,10.80
2019-01-11T08:39:23.715Z,10.67
2019-01-11T08:41:53.597Z,10.67
2019-01-11T08:44:23.353Z,9.97
2019-01-11T08:46:53.313Z,10.57
2019-01-11T08:49:24.402Z,9.43
2019-01-11T08:51:54.295Z,9.83
2019-01-11T08:54:24.082Z,8.80
2019-01-11T08:56:53.892Z,8.80
2019-01-11T08:59:23.564Z,9.67
2019-01-11T09:01:54.618Z,8.97
2019-01-11T09:04:24.399Z,9.57
2019-01-11T09:06:54.209Z,9.00
2019-01-11T09:09:24.174Z,9.60
2019-01-11T09:11:54.166Z,9.13
2019-01-11T09:14:51.921Z,9.13
2019-01-11T09:17:21.951Z,8.63
2019-01-11T09:19:51.659Z,8.50
2019-01-11T09:22:21.607Z,8.20
2019-01-11T09:24:51.375Z,8.60
2019-01-11T09:27:21.235Z,7.97
2019-01-11T09:29:51.159Z,7.47
2019-01-11T09:32:21.016Z,8.80
2019-01-11T09:34:52.145Z,8.43
2019-01-11T09:37:21.900Z,7.77
2019-01-11T09:39:51.714Z,8.47
2019-01-11T09:42:21.576Z,8.37
2019-01-11T09:44:51.549Z,8.90
2019-01-11T09:47:21.500Z,7.50
2019-01-11T09:49:51.390Z,7.43
2019-01-11T09:52:21.231Z,7.90
2019-01-11T09:54:51.340Z,7.70
2019-01-11T09:57:21.226Z,8.03
2019-01-11T09:59:51.288Z,8.50
2019-01-11T10:02:35.570Z,7.57
2019-01-11T10:05:07.074Z,8.23
2019-01-11T10:07:37.188Z,8.03
2019-01-11T10:10:09.892Z,8.97
2019-01-11T10:12:39.885Z,8.00
2019-01-11T10:15:11.041Z,8.70
2019-01-11T10:17:40.997Z,7.73
2019-01-11T10:20:11.553Z,9.40
2019-01-11T10:22:41.593Z,7.93
2019-01-11T10:25:11.544Z,8.40
2019-01-11T10:27:41.297Z,8.13
2019-01-11T10:30:13.998Z,7.83
2019-01-11T10:32:44.465Z,8.00
2019-01-11T10:35:14.449Z,8.43
2019-01-11T10:37:44.283Z,9.27
2019-01-11T10:40:16.463Z,10.60
2019-01-11T10:42:46.516Z,6.97
2019-01-11T10:45:18.784Z,7.37
2019-01-11T10:47:48.768Z,8.40
2019-01-11T10:50:18.668Z,8.73
2019-01-11T10:52:48.536Z,7.97
2019-01-11T10:55:18.819Z,9.50
2019-01-11T10:57:49.434Z,8.00
2019-01-11T11:00:29.720Z,6.93
2019-01-11T11:03:00.027Z,7.37
2019-01-11T11:05:29.904Z,7.97
2019-01-11T11:07:59.664Z,8.57
2019-01-11T11:10:29.516Z,7.20
2019-01-11T11:12:59.271Z,7.50
2019-01-11T11:15:29.219Z,7.13
2019-01-11T11:17:59.087Z,7.53
2019-01-11T11:20:28.927Z,7.93
2019-01-11T11:22:58.762Z,7.77
2019-01-11T11:25:30.077Z,7.73
2019-01-11T11:27:59.904Z,7.07
2019-01-11T11:30:29.742Z,7.23
2019-01-11T11:33:00.463Z,6.93
2019-01-11T11:35:31.054Z,7.60
2019-01-11T11:38:00.782Z,7.60
2019-01-11T11:40:31.542Z,7.50
2019-01-11T11:43:04.133Z,7.83
2019-01-11T11:45:34.042Z,7.30
2019-01-11T11:48:03.945Z,7.03
2019-01-11T11:50:33.740Z,7.43
2019-01-11T11:53:03.738Z,7.00
2019-01-11T11:55:33.692Z,7.50
2019-01-11T11:58:03.490Z,7.63
2019-01-11T12:00:33.458Z,7.90
2019-01-11T12:03:03.231Z,7.90
2019-01-11T12:05:32.984Z,9.57
2019-01-11T12:08:03.997Z,9.23
2019-01-11T12:10:33.790Z,9.03
2019-01-11T12:13:03.616Z,8.33
2019-01-11T12:15:33.752Z,8.90
2019-01-11T12:18:03.667Z,7.73
2019-01-11T12:20:34.259Z,7.93
2019-01-11T12:23:04.254Z,8.90
2019-01-11T12:25:33.962Z,9.00
2019-01-11T12:28:03.631Z,8.53
2019-01-11T12:30:33.554Z,8.03
2019-01-11T12:33:03.422Z,8.60
2019-01-11T12:35:33.060Z,8.50
2019-01-11T12:38:04.229Z,7.67
2019-01-11T12:40:34.249Z,8.83
2019-01-11T12:43:04.037Z,9.23
2019-01-11T12:45:34.028Z,8.27
2019-01-11T12:48:04.096Z,8.53
2019-01-11T12:50:33.898Z,9.10
2019-01-11T12:53:06.349Z,9.97
2019-01-11T12:55:35.988Z,9.30
2019-01-11T12:58:05.919Z,9.40
2019-01-11T13:00:36.403Z,8.90
2019-01-11T13:03:06.145Z,9.90
2019-01-11T13:05:36.069Z,9.93
2019-01-11T13:08:06.016Z,9.73
2019-01-11T13:10:35.712Z,9.17
2019-01-11T13:13:05.413Z,9.33
2019-01-11T13:15:35.296Z,9.80
2019-01-11T13:18:05.143Z,9.10
2019-01-11T13:20:34.858Z,10.03
2019-01-11T13:23:06.523Z,10.17
2019-01-11T13:25:36.410Z,10.23
2019-01-11T13:28:06.126Z,9.53
2019-01-11T13:30:35.970Z,9.03
2019-01-11T13:33:05.968Z,10.40
2019-01-11T13:35:35.776Z,10.53
2019-01-11T13:38:06.936Z,9.50
2019-01-11T13:40:36.835Z,10.37
2019-01-11T13:43:06.747Z,10.53
2019-01-11T13:45:36.717Z,9.57
2019-01-11T13:48:07.766Z,9.47
2019-01-11T13:50:42.141Z,10.07
2019-01-11T13:53:20.070Z,10.10
2019-01-11T13:55:49.962Z,10.53
2019-01-11T13:58:19.764Z,10.77
2019-01-11T14:00:49.720Z,9.53
2019-01-11T14:03:19.509Z,10.40
2019-01-11T14:05:49.404Z,9.33
2019-01-11T14:08:20.480Z,10.37
2019-01-11T14:10:50.295Z,11.33
2019-01-11T14:13:20.097Z,11.33
2019-01-11T14:15:50.177Z,10.83
2019-01-11T14:18:20.038Z,12.13
2019-01-11T14:20:49.840Z,11.93
2019-01-11T14:23:19.790Z,11.53
2019-01-11T14:25:49.565Z,12.30
2019-01-11T14:28:19.385Z,12.90
2019-01-11T14:30:49.355Z,11.20
2019-01-11T14:33:19.201Z,12.60
2019-01-11T14:35:49.062Z,11.97
2019-01-11T14:38:19.005Z,12.47
2019-01-11T14:40:48.673Z,12.27
2019-01-11T14:43:18.478Z,13.00
2019-01-11T14:45:49.628Z,12.63
2019-01-11T14:48:19.537Z,11.73
2019-01-11T14:50:49.333Z,13.80
2019-01-11T14:53:18.996Z,13.33
2019-01-11T14:55:48.667Z,13.60
2019-01-11T14:58:19.322Z,14.87
2019-01-11T15:00:49.290Z,13.20
2019-01-11T15:03:19.036Z,13.00
2019-01-11T15:05:48.964Z,12.83
2019-01-11T15:08:18.865Z,13.10
2019-01-11T15:10:48.796Z,13.33
2019-01-11T15:13:18.711Z,13.83
2019-01-11T15:15:48.403Z,14.57
2019-01-11T15:18:18.318Z,13.37
2019-01-11T15:20:48.391Z,13.77
2019-01-11T15:23:18.206Z,13.13
2019-01-11T15:25:48.071Z,13.53
2019-01-11T15:28:17.975Z,12.37
2019-01-11T15:30:47.812Z,15.23
2019-01-11T15:33:17.573Z,13.57
2019-01-11T15:35:48.586Z,13.90
2019-01-11T15:38:18.612Z,13.30
2019-01-11T15:40:48.516Z,12.30
2019-01-11T15:43:18.390Z,13.10
2019-01-11T15:45:48.216Z,12.23
2019-01-11T15:48:20.553Z,12.57
2019-01-11T15:50:57.999Z,11.17
2019-01-11T15:53:35.655Z,11.57
2019-01-11T15:56:06.850Z,12.10
2019-01-11T15:58:36.649Z,12.60
2019-01-11T16:01:07.124Z,10.50
2019-01-11T16:03:37.014Z,10.33
2019-01-11T16:06:31.893Z,11.30
2019-01-11T16:10:02.046Z,12.30
2019-01-11T16:12:44.673Z,12.73
2019-01-11T16:15:46.895Z,11.50
2019-01-11T16:18:26.219Z,12.83
2019-01-11T16:20:56.080Z,12.57
2019-01-11T16:23:25.891Z,13.97
2019-01-11T16:25:56.959Z,13.77
2019-01-11T16:28:26.675Z,14.67
2019-01-11T16:30:56.395Z,14.67
2019-01-11T16:33:26.261Z,12.40
2019-01-11T16:35:56.061Z,14.03
2019-01-11T16:38:25.928Z,15.17
2019-01-11T16:40:55.728Z,14.17
2019-01-11T16:43:25.819Z,14.17
2019-01-11T16:45:55.669Z,14.63
2019-01-11T16:48:25.479Z,14.20
2019-01-11T16:50:55.499Z,14.87
2019-01-11T16:53:25.702Z,13.27
2019-01-11T16:55:55.687Z,14.70
2019-01-11T16:58:25.367Z,13.43
2019-01-11T17:00:55.281Z,15.13
2019-01-11T17:03:25.217Z,14.37
2019-01-11T17:05:55.068Z,12.77
2019-01-11T17:08:24.805Z,18.57
2019-01-11T17:10:54.693Z,16.87
2019-01-11T17:13:24.493Z,16.10
2019-01-11T17:15:54.374Z,15.90
2019-01-11T17:18:24.260Z,15.50
2019-01-11T17:20:54.451Z,15.63
2019-01-11T17:23:24.212Z,10.37
2019-01-11T17:25:54.142Z,10.93
2019-01-11T17:28:24.170Z,12.47
2019-01-11T17:30:54.407Z,12.30
2019-01-11T17:33:24.318Z,12.30
2019-01-11T17:35:53.953Z,15.20
2019-01-11T17:38:23.709Z,16.30
2019-01-11T17:40:53.800Z,15.00
2019-01-11T17:43:23.544Z,20.83
2019-01-11T17:45:53.481Z,17.57
2019-01-11T17:48:23.375Z,14.23
2019-01-11T17:50:53.094Z,15.83
2019-01-11T17:53:22.852Z,13.50
2019-01-11T17:55:52.633Z,14.83
2019-01-11T17:58:22.602Z,13.53
2019-01-11T18:00:54.538Z,15.17
2019-01-11T18:03:25.366Z,14.00
2019-01-11T18:05:55.419Z,13.20
2019-01-11T18:08:25.606Z,18.93
2019-01-11T18:10:55.303Z,20.43
2019-01-11T18:13:25.386Z,23.37
2019-01-11T18:15:55.320Z,13.93
2019-01-11T18:18:25.158Z,15.77
2019-01-11T18:20:56.259Z,14.77
2019-01-11T18:23:25.939Z,15.43
2019-01-11T18:25:55.882Z,16.30
2019-01-11T18:28:26.924Z,11.20
2019-01-11T18:30:56.927Z,11.47
2019-01-11T18:33:27.025Z,11.07
2019-01-11T18:35:58.280Z,12.47
2019-01-11T18:38:28.108Z,11.43
2019-01-11T18:40:57.919Z,15.03
2019-01-11T18:43:28.196Z,16.17
2019-01-11T18:45:57.849Z,17.20
2019-01-11T18:48:27.973Z,18.30
2019-01-11T18:50:58.068Z,17.33
2019-01-11T18:53:27.798Z,19.23
2019-01-11T18:55:57.748Z,23.17
2019-01-11T18:58:27.648Z,24.03
2019-01-11T19:00:57.481Z,21.53
2019-01-11T19:03:27.295Z,19.57
2019-01-11T19:05:57.308Z,18.20
2019-01-11T19:08:27.126Z,15.37
2019-01-11T19:10:57.269Z,12.80
2019-01-11T19:13:27.052Z,12.20
2019-01-11T19:15:56.752Z,11.33
2019-01-11T19:18:27.731Z,10.47
2019-01-11T19:20:57.693Z,10.83
2019-01-11T19:23:27.449Z,9.87
2019-01-11T19:25:57.347Z,11.63
2019-01-11T19:28:28.719Z,11.40
2019-01-11T19:30:58.635Z,11.47
2019-01-11T19:33:28.463Z,11.43
2019-01-11T19:35:58.572Z,11.27
2019-01-11T19:38:28.552Z,11.33
2019-01-11T19:40:58.499Z,11.70
2019-01-11T19:43:28.230Z,11.57
2019-01-11T19:45:58.000Z,11.37
2019-01-11T19:48:27.934Z,12.77
2019-01-11T19:50:57.784Z,12.23
2019-01-11T19:53:27.917Z,13.10
2019-01-11T19:55:58.928Z,12.30
2019-01-11T19:58:30.173Z,12.27
2019-01-11T20:01:00.012Z,12.93
2019-01-11T20:03:29.879Z,12.80
2019-01-11T20:05:59.629Z,13.00
2019-01-11T20:08:29.410Z,13.37
2019-01-11T20:10:59.577Z,13.70
2019-01-11T20:13:29.466Z,13.73
2019-01-11T20:16:00.077Z,12.50
2019-01-11T20:18:32.344Z,12.80
2019-01-11T20:21:02.260Z,12.43
2019-01-11T20:23:36.599Z,12.57
2019-01-11T20:26:04.985Z,13.20
2019-01-11T20:28:34.775Z,13.03
2019-01-11T20:31:05.032Z,13.20
2019-01-11T20:33:36.191Z,12.00
2019-01-11T20:36:06.405Z,12.07
2019-01-11T20:38:36.281Z,13.30
2019-01-11T20:41:06.281Z,13.30
2019-01-11T20:43:37.510Z,13.83
2019-01-11T20:46:07.276Z,12.43
2019-01-11T20:48:37.194Z,12.53
2019-01-11T20:51:07.121Z,12.03
2019-01-11T20:53:41.621Z,12.20
2019-01-11T20:56:08.527Z,12.80
2019-01-11T20:58:38.292Z,13.33
2019-01-11T21:01:08.390Z,12.77
2019-01-11T21:03:38.261Z,13.73
2019-01-11T21:06:08.053Z,13.00
2019-01-11T21:08:37.973Z,12.87
2019-01-11T21:11:07.948Z,12.40
2019-01-11T21:13:37.867Z,13.00
2019-01-11T21:16:07.580Z,12.67
2019-01-11T21:18:37.797Z,11.43
2019-01-11T21:21:08.052Z,12.80
2019-01-11T21:23:38.056Z,12.30
2019-01-11T21:26:08.152Z,12.27
2019-01-11T21:28:37.913Z,11.50
2019-01-11T21:31:07.707Z,11.43
2019-01-11T21:33:38.815Z,11.53
2019-01-11T21:36:08.465Z,15.57
2019-01-11T21:38:38.407Z,13.03
2019-01-11T21:41:09.771Z,18.37
2019-01-11T21:43:39.670Z,16.60
2019-01-11T21:46:09.658Z,15.87
2019-01-11T21:48:39.759Z,13.87
2019-01-11T21:51:09.513Z,13.80
2019-01-11T21:53:39.425Z,13.77
2019-01-11T21:56:09.306Z,13.27
2019-01-11T21:58:39.267Z,11.97
2019-01-11T22:01:09.078Z,10.83
2019-01-11T22:03:38.914Z,12.03
2019-01-11T22:06:08.910Z,11.77
2019-01-11T22:08:38.853Z,11.33
2019-01-11T22:11:08.548Z,13.20
2019-01-11T22:13:38.516Z,11.83
2019-01-11T22:16:09.854Z,14.37
2019-01-11T22:18:39.617Z,15.67
2019-01-11T22:21:09.601Z,12.87
2019-01-11T22:23:39.961Z,12.93
2019-01-11T22:26:09.892Z,13.33
2019-01-11T22:28:39.774Z,12.37
2019-01-11T22:31:09.621Z,15.73
2019-01-11T22:33:39.742Z,14.63
2019-01-11T22:36:09.506Z,14.70
2019-01-11T22:38:39.434Z,14.83
2019-01-11T22:41:09.546Z,15.90
2019-01-11T22:43:39.556Z,15.23
2019-01-11T22:46:09.438Z,12.37
2019-01-11T22:48:39.384Z,15.97
2019-01-11T22:51:09.210Z,12.00
2019-01-11T22:53:39.218Z,12.87
2019-01-11T22:56:09.155Z,12.77
2019-01-11T22:58:39.311Z,13.57
2019-01-11T23:01:39.046Z,11.87
2019-01-11T23:04:08.780Z,12.50
2019-01-11T23:07:02.375Z,13.17
2019-01-11T23:09:57.109Z,12.60
2019-01-11T23:12:41.268Z,14.17
2019-01-11T23:15:21.326Z,15.93
2019-01-11T23:17:57.933Z,15.70
2019-01-11T23:20:27.779Z,13.87
2019-01-11T23:22:57.688Z,13.50
2019-01-11T23:25:27.918Z,14.27
2019-01-11T23:27:58.014Z,15.27
2019-01-11T23:30:28.052Z,17.27
2019-01-11T23:32:58.892Z,15.07
2019-01-11T23:35:29.048Z,17.50
2019-01-11T23:37:58.927Z,16.60
2019-01-11T23:40:29.461Z,17.87
2019-01-11T23:42:59.322Z,16.33
2019-01-11T23:45:29.239Z,17.30
2019-01-11T23:47:59.122Z,17.07
2019-01-11T23:50:29.176Z,17.63
2019-01-11T23:52:58.882Z,14.40
2019-01-11T23:55:29.058Z,15.70
2019-01-11T23:57:58.890Z,14.53
